Flight Track Log - Related Links

Times and Time Zones

All times are in EDT time to prevent confusion due to time zone crossing. See the OPT429 flight status page for this flight to view local times or setup timezone preferences in your user account.

Time Position Orientation Groundspeed Altitude Reporting Facility
EDT Latitude Longitude Course Direction KTS MPH feet Rate Location/Type
Wed 12:30:12 PM 25.9150 -80.2950 295° West 157 181 700  Level Miami Center
Wed 12:31:07 PM 25.9350 -80.3428 295° West 195 224 2,600 2,017 Climbing Miami Center
Wed 12:32:08 PM 25.9583 -80.4047 293° West 239 275 4,600 1,750 Climbing Miami Center
Wed 12:32:19 PM 25.9586 -80.4069 278° West 225 259 4,700 2,270 Climbing Miami Center
Wed 12:33:22 PM 26.0014 -80.4617 311° West 260 299 7,400 2,736 Climbing Miami Center
Wed 12:34:24 PM 26.0847 -80.4528 North 260 299 10,400 2,613 Climbing Miami Center
Wed 12:35:26 PM 26.1594 -80.4322 14° North 273 314 12,800 2,274 Climbing Miami Center
Wed 12:36:28 PM 26.2392 -80.4203 North 289 333 15,100 2,016 Climbing Miami Center
Wed 12:37:31 PM 26.3267 -80.4611 337° Northwest 304 350 17,000 1,344 Climbing Miami Center
Wed 12:38:33 PM 26.4136 -80.4981 339° North 336 387 17,900 1,403 Climbing Miami Center
Wed 12:39:35 PM 26.5058 -80.5456 335° Northwest 338 389 19,900 1,790 Climbing Miami Center
Wed 12:40:37 PM 26.5908 -80.5869 336° Northwest 334 384 21,600 1,488 Climbing Miami Center
Wed 12:41:40 PM 26.6858 -80.6306 338° Northwest 342 394 23,000 864 Climbing Miami Center
Wed 12:42:42 PM 26.7772 -80.6750 337° Northwest 369 425 23,400 581 Climbing Miami Center
Wed 12:43:44 PM 26.8731 -80.7208 337° Northwest 385 443 24,200 1,008 Climbing Miami Center
Wed 12:44:47 PM 26.9728 -80.7675 337° Northwest 386 444 25,500 1,344 Climbing Miami Center
Wed 12:45:49 PM 27.0911 -80.8242 337° Northwest 386 444 27,000 1,306 Climbing Miami Center
Wed 12:46:51 PM 27.1906 -80.8703 338° Northwest 385 443 28,200 1,161 Climbing Miami Center
Wed 12:47:53 PM 27.2897 -80.9169 337° Northwest 385 443 29,400 1,056 Climbing Miami Center
Wed 12:48:56 PM 27.3850 -80.9619 337° Northwest 389 448 30,400 912 Climbing Miami Center
Wed 12:49:58 PM 27.5153 -80.9906 349° North 406 467 31,300 774 Climbing Miami Center
Wed 12:51:00 PM 27.6339 -81.0036 354° North 426 490 32,000 672 Climbing Miami Center
Wed 12:52:03 PM 27.7547 -81.0150 355° North 436 502 32,700 720 Climbing Miami Center
Wed 12:53:05 PM 27.8739 -81.0281 354° North 434 499 33,500 774 Climbing Miami Center
Wed 12:54:07 PM 27.9992 -81.0428 354° North 443 510 34,300 1,016 Climbing Miami Center
Wed 12:55:09 PM 28.1475 -81.0578 355° North 443 510 35,600 1,152 Climbing Miami Center
Wed 12:56:12 PM 28.2736 -81.0425 North 442 509 36,700 1,056 Climbing Miami Center
Wed 12:57:14 PM 28.3689 -80.9528 40° Northeast 426 490 37,800 919 Climbing Miami Center
Wed 12:58:16 PM 28.4197 -80.8519 60° Northeast 424 488 38,600 919 Climbing Miami Center
Wed 12:59:18 PM 28.4819 -80.7194 62° Northeast 419 482 39,700 960 Climbing Miami Center
Wed 01:00:21 PM 28.5378 -80.5989 62° Northeast 418 481 40,600 624 Climbing Miami Center
Wed 01:01:23 PM 28.5919 -80.4794 63° Northeast 409 471 41,000 194 Climbing Miami Center
Wed 01:02:25 PM 28.6500 -80.3550 62° Northeast 418 481 41,000  Level Miami Center
Wed 01:03:28 PM 28.7083 -80.2278 62° Northeast 432 497 41,000  Level Miami Center
Wed 01:04:30 PM 28.7586 -80.1183 62° Northeast 441 507 41,000  Level Miami Center
Wed 01:05:32 PM 28.8594 -79.9961 47° Northeast 450 518 41,000  Level Miami Center
Wed 01:06:34 PM 28.9706 -79.9331 26° Northeast 448 516 41,000  Level Miami Center
Wed 01:07:37 PM 29.0775 -79.8661 29° Northeast 440 506 41,000  Level Miami Center
Wed 01:08:39 PM 29.1825 -79.7989 29° Northeast 437 503 41,000  Level Miami Center
Wed 01:09:41 PM 29.2881 -79.7333 28° Northeast 436 502 41,000  Level Miami Center
Wed 01:10:43 PM 29.4128 -79.6528 29° Northeast 432 497 41,000  Level Miami Center
Wed 01:11:46 PM 29.5169 -79.5853 29° Northeast 432 497 41,000  Level Miami Center
Wed 01:12:48 PM 29.6208 -79.5186 29° Northeast 432 497 41,000  Level Miami Center
Wed 01:13:50 PM 29.7253 -79.4519 29° Northeast 431 496 41,000  Level Miami Center
Wed 01:14:52 PM 29.8394 -79.3767 30° Northeast 429 494 41,000  Level Miami Center
Wed 01:15:54 PM 29.9339 -79.3167 29° Northeast 429 494 41,000 -48 Level Miami Center
Wed 01:16:57 PM 30.0483 -79.2428 29° Northeast 429 494 40,900  Descending Miami Center
Wed 01:17:59 PM 30.1525 -79.1733 30° Northeast 430 495 41,000 48 Climbing Miami Center
Wed 01:19:01 PM 30.2778 -79.0922 29° Northeast 430 495 41,000 145 Level Miami Center
Wed 01:20:03 PM 30.3817 -79.0233 30° Northeast 430 495 41,300 532 Climbing Miami Center
Wed 01:21:05 PM 30.4914 -78.9714 22° Northeast 429 494 42,100 726 Climbing Miami Center
Wed 01:22:07 PM 30.6017 -78.9317 17° North 421 484 42,800 435 Climbing Miami Center
Wed 01:23:09 PM 30.7114 -78.8944 16° North 416 479 43,000 97 Climbing Miami Center
Wed 01:24:11 PM 30.8211 -78.8550 17° North 415 478 43,000  Level Miami Center
Wed 01:25:13 PM 30.9547 -78.8058 18° North 415 478 43,000  Level Miami Center
Wed 01:26:15 PM 31.0686 -78.7667 16° North 421 484 43,000  Level Miami Center
Wed 01:27:21 PM 31.1919 -78.7206 18° North 413 475 43,000 -48 Level Jacksonville Center
Wed 01:28:21 PM 31.3033 -78.6839 16° North 419 482 42,900  Descending Jacksonville Center
Wed 01:29:20 PM 31.4147 -78.6400 19° North 413 475 43,000 50 Climbing Jacksonville Center
Wed 01:30:20 PM 31.5258 -78.5983 18° North 413 475 43,000  Level Jacksonville Center
Wed 01:31:21 PM 31.6353 -78.5617 16° North 409 471 43,000  Level Jacksonville Center
Wed 01:32:21 PM 31.7508 -78.5172 18° North 415 478 43,000  Level Jacksonville Center
Wed 01:33:21 PM 31.8619 -78.4775 17° North 415 478 43,000  Level Jacksonville Center
Wed 01:34:21 PM 31.9714 -78.4381 17° North 415 478 43,000 -50 Level Jacksonville Center
Wed 01:35:21 PM 32.0825 -78.3983 17° North 410 472 42,900  Descending Jacksonville Center
Wed 01:36:21 PM 32.1917 -78.3561 18° North 410 472 43,000 50 Climbing Jacksonville Center
Wed 01:37:20 PM 32.3031 -78.3164 17° North 410 472 43,000  Level Jacksonville Center
Wed 01:38:20 PM 32.4078 -78.2717 20° North 410 472 43,000  Level Jacksonville Center
Wed 01:39:21 PM 32.5150 -78.2317 17° North 405 466 43,000  Level Jacksonville Center
Wed 01:40:21 PM 32.6219 -78.1917 17° North 400 460 43,000  Level Jacksonville Center
Wed 01:41:21 PM 32.7269 -78.1542 17° North 394 453 43,000  Level Jacksonville Center
Wed 01:42:21 PM 32.8342 -78.1164 16° North 394 453 43,000  Level Jacksonville Center
Wed 01:43:21 PM 32.9411 -78.0736 19° North 394 453 43,000  Level Jacksonville Center
Wed 01:45:04 PM 33.1169 -78.0086 17° North 394 453 43,000  Level Washington Center
Wed 01:46:02 PM 33.2200 -77.9669 19° North 386 444 43,000  Level Washington Center
Wed 01:47:03 PM 33.3186 -77.9325 16° North 393 452 43,000  Level Washington Center
Wed 01:48:04 PM 33.4239 -77.8906 18° North 388 447 43,000  Level Washington Center
Wed 01:49:04 PM 33.5289 -77.8536 16° North 388 447 43,000  Level Washington Center
Wed 01:50:04 PM 33.6339 -77.8117 18° North 388 447 43,000  Level Washington Center
Wed 01:51:02 PM 33.7369 -77.7694 19° North 388 447 43,000 101 Level Washington Center
Wed 01:52:03 PM 33.8461 -77.7272 18° North 388 447 43,200 295 Climbing Washington Center
Wed 01:53:04 PM 33.9533 -77.6850 18° North 398 458 43,600 353 Climbing Washington Center
Wed 01:54:02 PM 34.0603 -77.6475 16° North 398 458 43,900 254 Climbing Washington Center
Wed 01:55:02 PM 34.1653 -77.6100 16° North 398 458 44,100 198 Climbing Washington Center
Wed 01:56:03 PM 34.2681 -77.5697 18° North 393 452 44,300 198 Climbing Washington Center
Wed 01:57:03 PM 34.3689 -77.5319 17° North 388 447 44,500 149 Climbing Washington Center
Wed 01:58:04 PM 34.4717 -77.4914 18° North 383 441 44,600 99 Climbing Washington Center
Wed 01:59:04 PM 34.5725 -77.4536 17° North 383 441 44,700 102 Climbing Washington Center
Wed 02:00:02 PM 34.6694 -77.4028 23° Northeast 378 435 44,800 101 Climbing Washington Center
Wed 02:01:03 PM 34.7639 -77.3492 25° Northeast 373 429 44,900 50 Climbing Washington Center
Wed 02:02:03 PM 34.8567 -77.2931 26° Northeast 373 429 44,900  Level Washington Center
Wed 02:03:04 PM 34.9533 -77.2417 24° Northeast 373 429 44,900  Level Washington Center
Wed 02:04:04 PM 35.0500 -77.1878 25° Northeast 373 429 44,900  Level Washington Center
Wed 02:05:02 PM 35.1550 -77.1314 24° Northeast 378 435 44,900  Level Washington Center
Wed 02:06:03 PM 35.2539 -77.0775 24° Northeast 378 435 44,900  Level Washington Center
Wed 02:07:04 PM 35.3461 -77.0283 24° Northeast 378 435 44,900  Level Washington Center
Wed 02:08:02 PM 35.4469 -76.9714 25° Northeast 378 435 44,900  Level Washington Center
Wed 02:09:02 PM 35.5458 -76.9169 24° Northeast 378 435 44,900  Level Washington Center
Wed 02:10:03 PM 35.6233 -76.8722 25° Northeast 378 435 44,900  Level Washington Center
Wed 02:11:04 PM 35.7264 -76.8150 24° Northeast 371 427 44,900  Level Washington Center
Wed 02:12:02 PM 35.8228 -76.7628 24° Northeast 376 433 44,900  Level Washington Center
Wed 02:13:03 PM 35.9214 -76.7078 24° Northeast 381 438 44,900  Level Washington Center
Wed 02:14:04 PM 36.0219 -76.6500 25° Northeast 381 438 44,900  Level Washington Center
Wed 02:15:02 PM 36.1206 -76.5947 24° Northeast 381 438 44,900  Level Washington Center
Wed 02:16:03 PM 36.2192 -76.5369 25° Northeast 381 438 44,900  Level Washington Center
Wed 02:17:04 PM 36.3197 -76.4814 24° Northeast 381 438 44,900  Level Washington Center
Wed 02:18:02 PM 36.4181 -76.4231 26° Northeast 381 438 44,900  Level Washington Center
Wed 02:19:02 PM 36.5208 -76.3672 24° Northeast 381 438 44,900  Level Washington Center
Wed 02:20:03 PM 36.6233 -76.3114 24° Northeast 387 445 44,900  Level Washington Center
Wed 02:21:04 PM 36.7342 -76.2397 27° Northeast 395 455 44,900  Level Washington Center
Wed 02:22:02 PM 36.8389 -76.1811 24° Northeast 401 461 44,900  Level Washington Center
Wed 02:23:02 PM 36.9436 -76.1194 25° Northeast 406 467 44,900  Level Washington Center
Wed 02:24:03 PM 37.0564 -76.0656 21° North 418 481 44,900  Level Washington Center
Wed 02:25:04 PM 37.1589 -76.0011 27° Northeast 413 475 44,900  Level Washington Center
Wed 02:26:02 PM 37.2653 -75.9389 25° Northeast 408 470 44,900  Level Washington Center
Wed 02:27:03 PM 37.3719 -75.8767 25° Northeast 408 470 44,900  Level Washington Center
Wed 02:28:04 PM 37.4783 -75.8142 25° Northeast 413 475 44,900  Level Washington Center
Wed 02:30:02 PM 37.6914 -75.6864 25° Northeast 423 487 44,900  Level Washington Center
Wed 02:31:03 PM 37.8019 -75.6233 24° Northeast 423 487 44,900 -397 Level Washington Center
Wed 02:32:03 PM 37.9144 -75.5575 25° Northeast 423 487 44,100 -750 Descending Washington Center
Wed 02:33:03 PM 38.0272 -75.4889 26° Northeast 434 499 43,400 -694 Descending Washington Center
Wed 02:34:04 PM 38.1397 -75.4175 27° Northeast 440 506 42,700 -807 Descending Washington Center
Wed 02:35:02 PM 38.2522 -75.3433 27° Northeast 440 506 41,800 -908 Descending Washington Center
Wed 02:36:03 PM 38.3500 -75.2767 28° Northeast 440 506 40,900 -934 Descending Washington Center
Wed 02:37:04 PM 38.4644 -75.2072 25° Northeast 445 512 39,900 -958 Descending Washington Center
Wed 02:38:02 PM 38.5789 -75.1350 26° Northeast 451 519 39,000 -908 Descending Washington Center
Wed 02:39:03 PM 38.6911 -75.0464 32° Northeast 451 519 38,100 -843 Descending Washington Center
Wed 02:40:03 PM 38.7947 -74.9364 40° Northeast 473 544 37,300 -545 Descending Washington Center
Wed 02:41:04 PM 38.8983 -74.8208 41° Northeast 483 556 37,000 -908 Descending Washington Center
Wed 02:42:02 PM 39.0036 -74.7075 40° Northeast 488 562 35,500 -1,916 Descending Washington Center
Wed 02:43:03 PM 39.1072 -74.5967 40° Northeast 488 562 33,200 -2,986 Descending Washington Center
Wed 02:45:29 PM 39.3833 -74.2975 40° Northeast 512 589 25,200 -3,188 Descending New York Center
Wed 02:46:30 PM 39.4828 -74.1842 41° Northeast 494 568 22,200 -2,066 Descending New York Center
Wed 02:47:31 PM 39.5714 -74.0672 45° Northeast 467 537 21,000 -643 Descending New York Center
Wed 02:48:22 PM 39.6314 -73.9681 52° Northeast 452 520 21,000 -375 Level Boston Center
Wed 02:49:23 PM 39.7117 -73.8422 50° Northeast 452 520 20,300 -934 Descending Boston Center
Wed 02:50:24 PM 39.7922 -73.7161 50° Northeast 453 521 19,100 -1,131 Descending Boston Center
Wed 02:51:25 PM 39.8711 -73.5908 51° Northeast 453 521 18,000 -1,016 Descending Boston Center
Wed 02:52:28 PM 39.9706 -73.4622 45° Northeast 444 511 17,000 -871 Descending Boston Center
Wed 02:53:29 PM 40.0564 -73.3586 43° Northeast 425 489 16,200 -1,366 Descending Boston Center
Wed 02:54:31 PM 40.1325 -73.2686 42° Northeast 376 433 14,200 -2,115 Descending Boston Center
Wed 02:55:31 PM 40.2100 -73.1772 42° Northeast 374 430 11,900 -2,182 Descending Boston Center
Wed 02:56:32 PM 40.2811 -73.0908 43° Northeast 352 405 9,800 -1,403 Descending Boston Center
Wed 02:57:35 PM 40.3478 -73.0108 42° Northeast 330 380 9,000 -774 Descending Boston Center
Wed 02:58:36 PM 40.4261 -72.9186 42° Northeast 319 367 8,200 -694 Descending Boston Center
Wed 02:59:36 PM 40.4892 -72.8417 43° Northeast 315 362 7,600 -639 Descending Boston Center
Wed 03:00:38 PM 40.5511 -72.7658 43° Northeast 310 357 6,900 -722 Descending Boston Center
Wed 03:02:14 PM 40.6500 -72.6333 45° Northeast 294 338 5,700 -731 Descending New York TRACON
Wed 03:03:14 PM 40.7167 -72.5667 37° Northeast 299 344 5,000 -650 Descending New York TRACON
Wed 03:04:14 PM 40.7667 -72.4833 52° Northeast 297 342 4,400 -650 Descending New York TRACON
Wed 03:05:14 PM 40.8500 -72.4500 17° North 288 331 3,700 -750 Descending New York TRACON
Wed 03:06:14 PM 40.9167 -72.4167 21° North 286 329 2,900 -850 Descending New York TRACON
Wed 03:07:14 PM 40.9667 -72.3500 45° Northeast 270 311 2,000 -700 Descending New York TRACON
Wed 03:08:14 PM 40.9833 -72.2667 75° East 211 243 1,500 -400 Descending New York TRACON
Wed 03:09:14 PM 40.9833 -72.2000 90° East 166 191 1,200 -500 Descending New York TRACON
Wed 03:10:14 PM 40.9667 -72.2167 217° Southwest 131 151 500 -700 Descending New York TRACON
Wed 03:12:00 PM 40.9500 -72.2500 229° Southwest  Level FlightAware Approximate

Login

Don't have an account? Register now (free) for customized features, flight alerts, and more!